DW1512 Weather Reports


Display with metric or nautical units.
time (UTC)temp
F
wind
direction
speed
MPH
gust
MPH
rain 1hr
in
rain 24hr
in
rain mn
in
humidity
%
barometer
mb
20191121111206 57 90 4.0 6.0 0.01 0.26 0.26 95 1006.7
20191121110707 57 56 3.0 6.0 0.01 0.26 0.26 97 1006.8
20191121110206 57 71 1.0 5.0 0.01 0.26 0.26 98 1006.7
20191121105706 57 45 2.0 5.0 0.02 0.26 0.26 98 1006.8
20191121105206 57 45 2.0 5.0 0.02 0.26 0.26 98 1006.6
20191121104707 57 56 2.0 3.0 0.02 0.26 0.26 98 1006.9
20191121104206 57 56 2.0 3.0 0.02 0.26 0.26 98 1006.8
20191121103707 57 72 1.0 1.0 0.02 0.26 0.26 98 1006.8
20191121103207 57 56 1.0 1.0 0.01 0.25 0.25 98 1007.0
20191121102706 57 0 0.0 1.0 0.01 0.25 0.25 98 1006.9
20191121102207 56 270 0.0 1.0 0.01 0.25 0.25 98 1007.3
20191121101706 56 270 0.0 1.0 0.01 0.25 0.25 98 1007.2
20191121101206 56 270 0.0 1.0 0.01 0.25 0.25 98 1007.1
20191121100707 56 270 0.0 1.0 0.01 0.25 0.25 98 1007.2
20191121100206 56 270 0.0 1.0 0.01 0.25 0.25 98 1007.1
20191121095707 56 270 0.0 1.0 0.00 0.24 0.24 98 1007.4
20191121095206 56 270 0.0 1.0 0.00 0.24 0.24 98 1007.4
20191121094707 56 270 0.0 2.0 0.00 0.24 0.24 98 1007.3
20191121094206 55 270 0.0 2.0 0.00 0.24 0.24 98 1007.5
20191121093706 55 348 1.0 2.0 0.00 0.24 0.24 98 1007.5
20191121093207 55 310 1.0 1.0 0.00 0.24 0.24 98 1007.5
20191121092707 55 297 1.0 1.0 0.00 0.24 0.24 98 1007.8
20191121092206 55 270 0.0 1.0 0.00 0.24 0.24 98 1007.6
20191121091707 55 288 1.0 1.0 0.00 0.24 0.24 98 1007.8
20191121091207 55 270 0.0 1.0 0.00 0.24 0.24 98 1007.9
20191121090707 55 225 0.0 1.0 0.00 0.24 0.24 98 1007.8
20191121090207 55 225 0.0 1.0 0.00 0.24 0.24 98 1007.9
20191121085706 55 225 1.0 1.0 0.00 0.24 0.24 98 1007.9
20191121085206 55 225 0.0 0.0 0.01 0.24 0.24 98 1008.0
20191121084706 54 225 0.0 0.0 0.01 0.24 0.24 98 1008.0
20191121084206 54 225 0.0 1.0 0.01 0.24 0.24 98 1007.9
20191121083706 54 225 0.0 1.0 0.01 0.24 0.24 98 1008.0
20191121083207 54 225 1.0 1.0 0.01 0.24 0.24 98 1008.0
20191121082706 54 225 0.0 1.0 0.01 0.24 0.24 98 1007.9
20191121082207 54 225 0.0 1.0 0.01 0.24 0.24 98 1007.9
20191121081706 54 237 0.0 1.0 0.01 0.24 0.24 98 1007.9
20191121081207 54 225 0.0 1.0 0.01 0.24 0.24 98 1008.0
20191121080707 54 225 0.0 1.0 0.01 0.24 0.24 98 1007.9
20191121080207 54 225 0.0 1.0 0.01 0.24 0.24 98 1008.0
20191121075707 54 225 0.0 1.0 0.02 0.24 0.24 98 1007.9
20191121075206 54 0 0.0 1.0 0.02 0.22 0.22 98 1007.8
20191121074707 54 225 0.0 1.0 0.02 0.22 0.22 98 1007.9
20191121074206 54 207 0.0 1.0 0.02 0.22 0.22 98 1008.0
20191121073707 54 270 0.0 0.0 0.02 0.22 0.22 98 1008.0
20191121073206 54 270 0.0 0.0 0.02 0.22 0.22 98 1007.9
20191121072706 53 270 0.0 0.0 0.02 0.22 0.22 98 1008.0
20191121072207 53 180 0.0 1.0 0.02 0.22 0.22 98 1008.2
20191121071707 53 180 0.0 1.0 0.02 0.22 0.22 98 1008.0
20191121071207 53 135 0.0 1.0 0.02 0.22 0.22 98 1008.1
20191121070707 53 63 1.0 1.0 0.02 0.22 0.22 98 1008.1
20191121070206 53 152 0.0 1.0 0.02 0.22 0.22 98 1008.2
20191121065707 52 196 0.0 1.0 0.02 0.21 0.21 98 1008.0
20191121065207 52 197 0.0 2.0 0.02 0.20 0.20 98 1008.3
20191121064706 52 326 0.0 2.0 0.04 0.20 0.20 98 1008.0
20191121064207 52 70 2.0 2.0 0.05 0.20 0.20 98 1008.1
20191121063707 52 45 1.0 2.0 0.06 0.20 0.20 98 1008.2
20191121063207 52 97 1.0 2.0 0.06 0.20 0.20 98 1008.4
20191121062707 52 90 1.0 2.0 0.06 0.20 0.20 98 1008.3
20191121062206 52 90 0.0 1.0 0.07 0.20 0.20 98 1008.3
20191121061707 52 225 0.0 1.0 0.07 0.20 0.20 98 1008.3
20191121061207 52 153 0.0 1.0 0.07 0.20 0.20 98 1008.4
20191121060707 52 191 0.0 1.0 0.07 0.20 0.20 98 1008.3
20191121060202 51 180 0.0 1.0 0.08 0.20 0.20 98 1008.2
20191121055702 51 135 0.0 3.0 0.07 0.19 0.19 98 1008.1
20191121055202 51 99 1.0 3.0 0.06 0.18 0.18 98 1008.1
20191121054702 51 85 1.0 3.0 0.06 0.17 0.17 98 1008.2
20191121054202 51 90 3.0 3.0 0.05 0.15 0.15 98 1008.2
20191121053702 51 56 1.0 2.0 0.05 0.14 0.14 98 1008.0
20191121053202 51 90 1.0 2.0 0.06 0.14 0.14 98 1008.0
20191121052702 51 135 1.0 2.0 0.07 0.14 0.14 98 1007.9
20191121052202 51 90 1.0 2.0 0.07 0.13 0.13 98 1008.0
20191121051702 52 90 1.0 2.0 0.07 0.13 0.13 98 1007.8
20191121051203 52 101 1.0 2.0 0.07 0.13 0.13 98 1008.0
20191121050703 52 56 1.0 1.0 0.07 0.13 0.13 98 1007.8
20191121050202 52 83 1.0 1.0 0.06 0.12 0.12 98 1007.9
20191121045702 52 56 1.0 1.0 0.06 0.12 0.12 98 1007.8
20191121045203 51 180 0.0 0.0 0.06 0.12 0.12 98 1008.0
20191121044703 51 180 0.0 1.0 0.06 0.11 0.11 98 1008.0
20191121044203 51 191 0.0 1.0 0.06 0.11 0.11 98 1008.0
20191121043703 51 270 1.0 1.0 0.05 0.09 0.09 98 1008.1
20191121043202 51 254 0.0 1.0 0.05 0.08 0.08 98 1008.0
20191121042703 51 225 0.0 1.0 0.04 0.07 0.07 98 1007.9
20191121042202 51 225 1.0 1.0 0.02 0.06 0.06 98 1007.8
20191121041703 51 236 0.0 1.0 0.02 0.06 0.06 98 1007.7
20191121041203 51 180 0.0 1.0 0.02 0.06 0.06 98 1007.6
20191121040702 51 180 0.0 1.0 0.02 0.06 0.06 98 1007.8
20191121040203 51 225 0.0 1.0 0.02 0.06 0.06 98 1007.6
20191121035703 51 180 0.0 1.0 0.02 0.06 0.06 98 1007.7
20191121035202 51 225 0.0 1.0 0.02 0.06 0.06 98 1007.7
20191121034702 51 180 0.0 1.0 0.01 0.05 0.05 98 1007.7
20191121034203 51 270 0.0 1.0 0.01 0.05 0.05 98 1007.7
20191121033703 51 90 1.0 1.0 0.01 0.05 0.05 98 1007.7
20191121033202 51 214 0.0 1.0 0.01 0.04 0.04 98 1007.9
20191121032703 51 180 0.0 1.0 0.01 0.04 0.04 98 1007.9
20191121032203 51 270 0.0 1.0 0.01 0.04 0.04 98 1007.8
20191121031702 51 225 0.0 1.0 0.02 0.04 0.04 98 1007.8
20191121031203 51 225 0.0 1.0 0.02 0.04 0.04 98 1007.7
20191121030702 51 225 0.0 0.0 0.02 0.04 0.04 98 1007.8
20191121030202 51 225 0.0 1.0 0.02 0.04 0.04 98 1007.8
20191121025703 51 225 0.0 1.0 0.02 0.04 0.04 98 1007.6
20191121025203 51 225 0.0 1.0 0.02 0.04 0.04 98 1007.7
20191121024702 51 225 0.0 0.0 0.02 0.04 0.04 98 1007.8
20191121024202 51 270 0.0 1.0 0.02 0.04 0.04 98 1007.8
20191121023702 51 253 0.0 1.0 0.02 0.04 0.04 98 1007.8
20191121023202 51 135 0.0 1.0 0.01 0.02 0.02 98 1007.9
20191121022703 51 180 0.0 0.0 0.01 0.02 0.02 98 1007.9
20191121022203 51 180 0.0 0.0 0.01 0.02 0.02 98 1007.9
20191121021702 51 225 0.0 1.0 0.00 0.01 0.01 98 1007.9
20191121021202 51 225 0.0 1.0 0.00 0.01 0.01 98 1007.9
20191121020703 51 225 1.0 1.0 0.00 0.01 0.01 98 1008.0
20191121020202 51 225 0.0 1.0 0.00 0.01 0.01 97 1007.9
20191121015703 51 225 0.0 1.0 0.00 0.01 0.01 97 1008.0
20191121015203 51 153 0.0 1.0 0.00 0.01 0.01 97 1008.1
20191121014703 51 270 0.0 1.0 0.00 0.01 0.01 97 1008.3
20191121014202 51 180 0.0 0.0 0.00 0.01 0.01 97 1008.4
20191121013702 52 225 0.0 0.0 0.00 0.01 0.01 97 1008.3
20191121013203 52 225 0.0 1.0 0.00 0.01 0.01 97 1008.2
20191121012703 52 236 0.0 1.0 0.00 0.01 0.01 97 1008.2
20191121012203 52 146 0.0 0.0 0.00 0.01 0.01 96 1008.3
20191121011703 52 270 0.0 0.0 0.00 0.01 0.01 96 1008.5
20191121011203 52 225 0.0 0.0 0.00 0.01 0.01 96 1008.5
20191121010703 52 225 0.0 0.0 0.00 0.01 0.01 96 1008.6
20191121010202 52 225 0.0 0.0 0.00 0.01 0.01 95 1008.5
20191121005702 52 225 0.0 1.0 0.00 0.01 0.01 95 1008.3
20191121005202 52 180 0.0 1.0 0.00 0.01 0.01 95 1008.2
20191121004703 52 90 0.0 1.0 0.00 0.01 0.01 95 1008.1
20191121004203 52 153 0.0 1.0 0.00 0.01 0.01 95 1008.4
20191121003702 52 225 1.0 1.0 0.00 0.01 0.01 94 1008.3
20191121003203 52 180 0.0 0.0 0.00 0.01 0.01 94 1008.5
20191121002703 52 191 0.0 0.0 0.00 0.01 0.01 94 1008.4
20191121002202 52 225 0.0 1.0 0.00 0.01 0.01 94 1008.3
20191121001702 52 237 0.0 1.0 0.00 0.01 0.01 94 1008.3
20191121001203 52 270 1.0 1.0 0.00 0.01 0.01 93 1008.3
20191121000703 52 225 0.0 0.0 0.00 0.01 0.01 93 1008.4
20191121000203 52 225 0.0 1.0 0.00 0.01 0.01 93 1008.5
20191120235703 52 225 0.0 1.0 0.00 0.01 0.01 93 1008.6
20191120235203 52 243 0.0 1.0 0.01 0.01 0.01 93 1008.5
20191120234703 52 225 0.0 1.0 0.01 0.01 0.01 93 1008.4
20191120234203 52 225 1.0 1.0 0.01 0.01 0.01 93 1008.3
20191120233703 52 225 0.0 1.0 0.01 0.01 0.01 92 1008.4
20191120233203 52 225 1.0 1.0 0.01 0.01 0.01 92 1008.3
20191120232704 52 225 0.0 0.0 0.01 0.01 0.01 92 1008.2
20191120232203 52 225 0.0 1.0 0.01 0.01 0.01 92 1008.1
20191120231703 52 225 0.0 1.0 0.01 0.01 0.01 92 1008.3
20191120231203 52 236 0.0 1.0 0.01 0.01 0.01 92 1008.3
20191120230703 52 270 0.0 1.0 0.01 0.01 0.01 92 1008.2
20191120230203 52 225 0.0 1.0 0.01 0.01 0.01 91 1008.4
20191120225704 52 225 0.0 1.0 0.01 0.01 0.01 92 1008.2
20191120225203 52 225 1.0 1.0 0.00 0.00 0.00 91 1008.4
20191120224703 52 225 0.0 1.0 0.00 0.00 0.00 91 1008.4
20191120224203 52 225 0.0 1.0 0.00 0.00 0.00 91 1008.4
20191120223703 52 225 0.0 1.0 0.00 0.00 0.00 91 1008.5
20191120223204 52 225 0.0 1.0 0.00 0.00 0.00 91 1008.3
20191120222703 52 270 0.0 1.0 0.00 0.00 0.00 91 1008.1
20191120222204 52 270 0.0 1.0 0.00 0.00 0.00 91 1008.2
20191120221703 53 270 0.0 1.0 0.00 0.00 0.00 91 1008.5
20191120221204 52 225 0.0 2.0 0.00 0.00 0.00 91 1008.4
20191120220703 52 180 0.0 2.0 0.00 0.00 0.00 91 1008.4
20191120220204 52 180 0.0 1.0 0.00 0.00 0.00 91 1008.5
20191120215704 52 194 0.0 1.0 0.00 0.00 0.00 91 1008.5
20191120215203 52 180 0.0 1.0 0.00 0.00 0.00 91 1008.5
20191120214703 52 214 0.0 1.0 0.00 0.00 0.00 91 1008.5
20191120214203 52 180 1.0 1.0 0.00 0.00 0.00 91 1008.5
20191120213703 52 180 0.0 1.0 0.00 0.00 0.00 91 1008.6
20191120213203 52 225 1.0 1.0 0.00 0.00 0.00 91 1008.5
20191120212703 52 225 0.0 1.0 0.00 0.00 0.00 91 1008.5
20191120212203 53 135 0.0 2.0 0.00 0.00 0.00 91 1008.5
20191120211703 53 70 0.0 2.0 0.00 0.00 0.00 91 1008.7
20191120211204 53 277 1.0 2.0 0.00 0.00 0.00 91 1008.8
20191120210704 52 300 1.0 2.0 0.00 0.00 0.00 91 1008.6
20191120210203 52 225 0.0 1.0 0.00 0.00 0.00 90 1008.7
20191120205703 52 225 0.0 1.0 0.00 0.00 0.00 90 1008.5
20191120205203 52 225 0.0 1.0 0.00 0.00 0.00 90 1008.5
20191120204703 52 192 0.0 2.0 0.00 0.00 0.00 90 1008.6
20191120204204 53 225 0.0 2.0 0.00 0.00 0.00 89 1008.5
20191120203703 53 187 1.0 2.0 0.00 0.00 0.00 89 1008.9
20191120203204 53 173 1.0 2.0 0.00 0.00 0.00 89 1008.8
20191120202703 53 135 1.0 2.0 0.00 0.00 0.00 89 1008.8
20191120202203 53 90 1.0 1.0 0.00 0.00 0.00 88 1008.8
20191120201703 52 90 1.0 1.0 0.00 0.00 0.00 88 1008.9
20191120201204 53 0 0.0 1.0 0.00 0.00 0.00 87 1009.1
20191120200703 53 270 0.0 1.0 0.00 0.00 0.00 87 1009.0
20191120200203 53 205 0.0 1.0 0.00 0.00 0.00 86 1009.1
20191120195704 53 180 0.0 1.0 0.00 0.00 0.00 86 1008.9
20191120195204 53 225 0.0 1.0 0.00 0.00 0.00 85 1009.1
20191120194704 53 198 0.0 3.0 0.00 0.00 0.00 85 1009.0
20191120194203 54 225 1.0 3.0 0.00 0.00 0.00 84 1009.0
20191120193704 54 90 2.0 3.0 0.00 0.00 0.00 84 1008.9
20191120193203 54 90 0.0 1.0 0.00 0.00 0.00 84 1008.9
20191120192704 54 191 0.0 1.0 0.00 0.00 0.00 84 1009.0
20191120192206 54 225 0.0 2.0 0.00 0.00 0.00 84 1009.0
20191120191716 54 237 1.0 2.0 0.00 0.00 0.00 84 1009.0
20191120191204 54 90 1.0 2.0 0.00 0.00 0.00 84 1008.9
20191120190717 54 288 1.0 3.0 0.00 0.00 0.00 84 1008.7
20191120190204 54 303 1.0 3.0 0.00 0.00 0.00 83 1008.7
20191120185704 54 260 2.0 3.0 0.00 0.00 0.00 83 1008.8
20191120185204 55 304 0.0 2.0 0.00 0.00 0.00 80 1008.5
20191120184704 55 67 0.0 5.0 0.00 0.00 0.00 80 1008.4
20191120184204 55 78 2.0 6.0 0.00 0.00 0.00 80 1008.3
20191120183704 55 98 2.0 6.0 0.00 0.00 0.00 80 1008.3
20191120183204 55 90 3.0 6.0 0.00 0.00 0.00 80 1008.3
20191120182704 55 90 2.0 5.0 0.00 0.00 0.00 79 1008.3
20191120182205 55 58 1.0 6.0 0.00 0.00 0.00 78 1008.5
20191120181704 56 82 2.0 6.0 0.00 0.00 0.00 77 1008.4
20191120181204 56 90 3.0 6.0 0.00 0.00 0.00 78 1008.5
20191120180704 56 122 2.0 3.0 0.00 0.00 0.00 79 1008.3
20191120180204 56 90 2.0 5.0 0.00 0.00 0.00 80 1008.2
20191120175704 56 90 2.0 5.0 0.00 0.00 0.00 80 1008.4
20191120175204 55 96 3.0 5.0 0.00 0.00 0.00 80 1008.3
20191120174705 55 123 1.0 3.0 0.00 0.00 0.00 80 1008.5
20191120174204 55 90 2.0 3.0 0.00 0.00 0.00 80 1008.4
20191120173704 55 119 2.0 3.0 0.00 0.00 0.00 79 1008.6
20191120173204 56 67 1.0 5.0 0.00 0.00 0.00 78 1008.4
20191120172704 56 90 2.0 5.0 0.00 0.00 0.00 78 1008.5
20191120172204 56 90 3.0 5.0 0.00 0.00 0.00 80 1008.4
20191120171704 56 45 3.0 5.0 0.00 0.00 0.00 81 1008.3
20191120171204 55 59 2.0 3.0 0.00 0.00 0.00 82 1008.5
20191120170704 55 62 2.0 3.0 0.00 0.00 0.00 83 1008.3
20191120170204 54 45 1.0 2.0 0.00 0.00 0.00 87 1008.5
20191120165705 54 0 1.0 1.0 0.00 0.00 0.00 86 1008.6
20191120165205 53 32 1.0 1.0 0.00 0.00 0.00 85 1008.6
20191120164704 53 259 0.0 1.0 0.00 0.00 0.00 84 1008.6
20191120164204 53 225 0.0 1.0 0.00 0.00 0.00 83 1008.6
20191120163703 53 225 0.0 2.0 0.00 0.00 0.00 84 1008.7
20191120163204 53 180 0.0 2.0 0.00 0.00 0.00 84 1008.7
20191120162705 53 114 0.0 1.0 0.00 0.00 0.00 83 1008.5
20191120162205 53 290 1.0 1.0 0.00 0.00 0.00 82 1008.7
20191120161705 53 303 0.0 1.0 0.00 0.00 0.00 81 1008.6
20191120161205 54 270 0.0 0.0 0.00 0.00 0.00 80 1008.4
20191120160705 54 225 0.0 0.0 0.00 0.00 0.00 80 1008.4
20191120160205 55 225 0.0 2.0 0.00 0.00 0.00 76 1008.3
20191120155704 55 45 0.0 2.0 0.00 0.00 0.00 76 1008.4
20191120155204 55 67 1.0 2.0 0.00 0.00 0.00 76 1008.2
20191120154705 56 90 1.0 2.0 0.00 0.00 0.00 75 1008.2
20191120154205 56 90 1.0 2.0 0.00 0.00 0.00 74 1008.3
20191120153705 57 128 1.0 2.0 0.00 0.00 0.00 74 1008.2
20191120153205 57 90 1.0 2.0 0.00 0.00 0.00 73 1008.3
20191120152705 58 90 1.0 3.0 0.00 0.00 0.00 72 1008.4
20191120152205 58 102 1.0 3.0 0.00 0.00 0.00 72 1008.2
20191120151705 59 90 1.0 3.0 0.00 0.00 0.00 71 1008.4
20191120151206 59 123 2.0 3.0 0.00 0.00 0.00 71 1008.2
20191120150705 59 135 2.0 3.0 0.00 0.00 0.00 70 1008.2
20191120150205 60 123 1.0 3.0 0.00 0.00 0.00 70 1008.2
20191120145704 60 144 1.0 5.0 0.00 0.00 0.00 70 1008.3
20191120145205 60 120 2.0 5.0 0.00 0.00 0.00 70 1008.3
20191120144705 60 119 2.0 3.0 0.00 0.00 0.00 69 1008.3
20191120144205 61 156 1.0 3.0 0.00 0.00 0.00 68 1008.5
20191120143705 61 111 1.0 5.0 0.00 0.00 0.00 67 1008.5
20191120143205 62 60 2.0 5.0 0.00 0.00 0.00 67 1008.5
20191120142705 62 129 2.0 6.0 0.00 0.00 0.00 66 1008.4
20191120142205 63 105 2.0 6.0 0.00 0.00 0.00 66 1008.5
20191120141705 63 150 3.0 7.0 0.00 0.00 0.00 66 1008.5
20191120141205 63 107 3.0 7.0 0.00 0.00 0.00 66 1008.6
20191120140705 63 102 5.0 7.0 0.00 0.00 0.00 65 1008.6
20191120140205 63 128 1.0 6.0 0.00 0.00 0.00 65 1008.6
20191120135705 63 135 2.0 6.0 0.00 0.00 0.00 63 1008.5
20191120135205 64 163 3.0 6.0 0.00 0.00 0.00 60 1008.5
20191120134706 64 165 4.0 6.0 0.00 0.00 0.00 60 1008.6
20191120134205 64 120 3.0 7.0 0.00 0.00 0.00 60 1008.4
20191120133705 64 77 3.0 8.0 0.00 0.00 0.00 60 1008.6
20191120133205 65 101 5.0 8.0 0.00 0.00 0.00 58 1008.5
20191120132706 65 102 6.0 8.0 0.00 0.00 0.00 57 1008.5
20191120132205 66 135 5.0 8.0 0.00 0.00 0.00 55 1008.5
20191120131705 66 123 5.0 8.0 0.00 0.00 0.00 55 1008.5
20191120131205 67 168 5.0 8.0 0.00 0.00 0.00 55 1008.2
20191120130705 67 72 5.0 8.0 0.00 0.00 0.00 55 1008.3
20191120130205 67 90 5.0 10.0 0.00 0.00 0.00 54 1008.5
20191120125705 67 251 3.0 10.0 0.00 0.00 0.00 54 1008.5
20191120125205 67 103 5.0 10.0 0.00 0.00 0.00 53 1008.3
20191120124705 67 120 5.0 10.0 0.00 0.00 0.00 54 1008.4
20191120124206 67 101 5.0 9.0 0.00 0.00 0.00 55 1008.4
20191120123705 67 170 4.0 8.0 0.00 0.00 0.00 56 1008.5
20191120123205 67 135 3.0 8.0 0.00 0.00 0.00 57 1008.5
20191120122705 67 90 7.0 10.0 0.00 0.00 0.00 55 1008.6
20191120122206 67 102 5.0 10.0 0.00 0.00 0.00 55 1008.7
20191120121705 67 122 4.0 10.0 0.00 0.00 0.00 56 1008.6
20191120121205 67 105 5.0 10.0 0.00 0.00 0.00 56 1008.8
20191120120705 67 100 6.0 10.0 0.00 0.00 0.00 57 1008.6
20191120120206 67 105 3.0 7.0 0.00 0.00 0.00 59 1008.6
20191120115705 67 142 3.0 7.0 0.00 0.00 0.00 58 1008.8
20191120115205 67 150 4.0 7.0 0.00 0.00 0.00 59 1008.8
20191120114705 67 169 3.0 8.0 0.00 0.00 0.00 60 1008.9
20191120114205 66 180 3.0 8.0 0.00 0.00 0.00 61 1008.9
20191120113705 65 178 3.0 8.0 0.00 0.00 0.00 62 1009.0
20191120113206 65 94 3.0 6.0 0.00 0.00 0.00 62 1009.3
20191120112705 64 90 3.0 7.0 0.00 0.00 0.00 64 1009.2
20191120112205 63 97 1.0 7.0 0.00 0.00 0.00 70 1008.9
20191120111705 62 18 2.0 3.0 0.00 0.00 0.00 72 1009.0